Time;durP1;ratioP1;P1;durP2;ratioP2;P2;SDS_P1;SDS_P2;PMS_P1;PMS_P2;Temp;Humidity;BMP_temperature;BMP_pressure;BME280_temperature;BME280_humidity;BME280_pressure;Samples;Min_cycle;Max_cycle;Signal;HPM_P1;HPM_P2
2022/10/11 00:00:03;;;;;;;;;;;9.00;99.90;;;;;;5108495;27;1305;-55
2022/10/11 00:02:42;;;;;;;;;;;9.10;99.90;;;;;;5108438;27;1300;-55
2022/10/11 00:05:21;;;;;;;;;;;9.10;99.90;;;;;;5088378;27;1624;-57
2022/10/11 00:07:59;;;;;;;;;;;9.10;99.90;;;;;;5108392;27;1312;-57
2022/10/11 00:10:37;;;;;;;;;;;9.20;99.90;;;;;;5102846;27;1783;-56
2022/10/11 00:13:17;;;;;;;;;;;9.20;99.90;;;;;;5107425;27;1357;-57
2022/10/11 00:15:55;;;;;;;;;;;9.30;99.90;;;;;;5104779;27;1669;-57
2022/10/11 00:18:33;;;;;;;;;;;9.30;99.90;;;;;;5083741;27;1539;-56
2022/10/11 00:21:13;;;;;;;;;;;9.30;99.90;;;;;;5062009;27;1742;-55
2022/10/11 00:23:51;;;;;;;;;;;9.40;99.90;;;;;;5107667;27;1627;-57
2022/10/11 00:26:30;;;;;;;;;;;9.40;99.90;;;;;;5107162;27;1523;-56
2022/10/11 00:29:08;;;;;;;;;;;9.40;99.90;;;;;;5103155;27;1566;-56
2022/10/11 00:31:46;;;;;;;;;;;9.50;99.90;;;;;;5106383;27;1437;-56
2022/10/11 00:34:25;;;;;;;;;;;9.50;99.90;;;;;;5107716;27;1340;-55
2022/10/11 00:37:04;;;;;;;;;;;9.60;99.90;;;;;;5109093;27;1296;-55
2022/10/11 00:39:42;;;;;;;;;;;9.60;99.90;;;;;;5107843;27;1568;-55
2022/10/11 00:42:21;;;;;;;;;;;9.70;99.90;;;;;;5090847;27;1747;-55
2022/10/11 00:45:12;;;;;;;;;;;9.60;99.90;;;;;;5108536;27;1664;-55
2022/10/11 00:47:51;;;;;;;;;;;9.60;99.90;;;;;;5107874;27;1447;-54
2022/10/11 00:50:31;;;;;;;;;;;9.60;99.90;;;;;;5108896;27;1389;-55
2022/10/11 00:53:11;;;;;;;;;;;9.50;99.90;;;;;;5083468;27;1397;-55
2022/10/11 00:55:53;;;;;;;;;;;9.50;99.90;;;;;;5109351;27;1243;-55
2022/10/11 00:58:31;;;;;;;;;;;9.50;99.90;;;;;;5086359;27;1505;-57
2022/10/11 01:01:11;;;;;;;;;;;9.50;99.90;;;;;;5086102;27;1925;-58
2022/10/11 01:03:49;;;;;;;;;;;9.50;99.90;;;;;;5106953;27;1304;-55
2022/10/11 01:06:27;;;;;;;;;;;9.60;99.90;;;;;;5068692;27;1309;-57
2022/10/11 01:09:05;;;;;;;;;;;9.50;99.90;;;;;;5082310;27;2073;-57
2022/10/11 01:11:46;;;;;;;;;;;9.60;99.90;;;;;;5107572;27;1479;-56
2022/10/11 01:14:38;;;;;;;;;;;9.60;99.90;;;;;;5108801;27;1253;-59
2022/10/11 01:17:22;;;;;;;;;;;9.60;99.90;;;;;;5109051;27;1400;-55
2022/10/11 01:20:14;;;;;;;;;;;9.70;99.90;;;;;;5103797;27;1676;-55
2022/10/11 01:23:08;;;;;;;;;;;9.70;99.90;;;;;;5099611;27;1889;-55
2022/10/11 01:25:52;;;;;;;;;;;9.70;99.90;;;;;;5107483;27;1244;-55
2022/10/11 01:28:41;;;;;;;;;;;9.80;99.90;;;;;;5108690;27;1416;-55
2022/10/11 01:31:22;;;;;;;;;;;9.80;99.90;;;;;;5108177;27;1301;-53
2022/10/11 01:34:03;;;;;;;;;;;9.80;99.90;;;;;;5067935;27;1712;-55
2022/10/11 01:36:45;;;;;;;;;;;9.80;99.90;;;;;;5108817;27;1320;-55
2022/10/11 01:39:25;;;;;;;;;;;9.80;99.90;;;;;;5083190;27;1671;-55
2022/10/11 01:42:06;;;;;;;;;;;9.80;99.90;;;;;;5095041;27;1888;-54
2022/10/11 01:44:47;;;;;;;;;;;9.80;99.90;;;;;;5106822;27;1245;-55
2022/10/11 01:47:26;;;;;;;;;;;9.80;99.90;;;;;;5108443;27;1754;-54
2022/10/11 01:50:06;;;;;;;;;;;9.80;99.90;;;;;;5107916;27;1340;-54
2022/10/11 01:52:45;;;;;;;;;;;9.80;99.90;;;;;;5088202;27;1660;-54
2022/10/11 01:55:28;;;;;;;;;;;9.80;99.90;;;;;;5104494;27;1607;-54
2022/10/11 01:58:13;;;;;;;;;;;9.80;99.90;;;;;;5104098;27;1854;-55
2022/10/11 02:00:57;;;;;;;;;;;9.80;99.90;;;;;;5105981;27;1563;-55
2022/10/11 02:03:41;;;;;;;;;;;9.80;99.90;;;;;;5108022;27;1305;-54
2022/10/11 02:06:25;;;;;;;;;;;9.80;99.90;;;;;;5107544;27;1406;-55
2022/10/11 02:09:06;;;;;;;;;;;9.90;99.90;;;;;;5108273;27;1596;-55
2022/10/11 02:11:45;;;;;;;;;;;9.90;99.90;;;;;;5100232;27;1296;-55
2022/10/11 02:14:24;;;;;;;;;;;9.90;99.90;;;;;;5108900;27;1502;-55
2022/10/11 02:17:06;;;;;;;;;;;9.90;99.90;;;;;;5107231;27;1397;-55
2022/10/11 02:19:49;;;;;;;;;;;9.90;99.90;;;;;;5103846;27;1885;-54
2022/10/11 02:22:29;;;;;;;;;;;9.90;99.90;;;;;;5088047;27;1812;-55
2022/10/11 02:25:10;;;;;;;;;;;9.90;99.90;;;;;;5107814;27;2004;-54
2022/10/11 02:27:50;;;;;;;;;;;9.90;99.90;;;;;;5094877;27;1176;-55
2022/10/11 02:30:28;;;;;;;;;;;9.90;99.90;;;;;;5087678;27;1405;-54
2022/10/11 02:33:11;;;;;;;;;;;9.90;99.90;;;;;;5068330;27;1227;-55
2022/10/11 02:35:54;;;;;;;;;;;9.90;99.90;;;;;;5088456;27;1390;-54
2022/10/11 02:38:34;;;;;;;;;;;9.90;99.90;;;;;;5102552;27;1558;-54
2022/10/11 02:41:18;;;;;;;;;;;9.80;99.90;;;;;;5084626;27;1351;-52
2022/10/11 02:43:59;;;;;;;;;;;9.90;99.90;;;;;;5107645;27;1364;-55
2022/10/11 02:46:39;;;;;;;;;;;9.90;99.90;;;;;;5108537;27;1328;-54
2022/10/11 02:49:19;;;;;;;;;;;9.90;99.90;;;;;;5108695;27;1232;-55
2022/10/11 02:51:58;;;;;;;;;;;9.90;99.90;;;;;;5088417;27;1309;-54
2022/10/11 02:54:36;;;;;;;;;;;9.90;99.90;;;;;;5100465;27;1315;-52
2022/10/11 02:57:14;;;;;;;;;;;9.90;99.90;;;;;;5109068;27;1539;-54
2022/10/11 02:59:53;;;;;;;;;;;9.90;99.90;;;;;;5108285;27;1246;-54
2022/10/11 03:02:31;;;;;;;;;;;10.00;99.90;;;;;;5108097;27;1245;-55
2022/10/11 03:05:09;;;;;;;;;;;10.00;99.90;;;;;;5105125;27;1977;-54
2022/10/11 03:07:47;;;;;;;;;;;10.00;99.90;;;;;;5104453;27;1675;-54
2022/10/11 03:10:38;;;;;;;;;;;10.00;99.90;;;;;;5104987;27;1589;-52
2022/10/11 03:13:17;;;;;;;;;;;10.00;99.90;;;;;;5107692;27;1273;-55
2022/10/11 03:15:56;;;;;;;;;;;10.00;99.90;;;;;;5109173;27;1296;-55
2022/10/11 03:18:34;;;;;;;;;;;10.00;99.90;;;;;;5108022;27;1212;-56
2022/10/11 03:21:12;;;;;;;;;;;10.00;99.90;;;;;;5102658;27;1654;-55
2022/10/11 03:23:50;;;;;;;;;;;10.00;99.90;;;;;;5108383;27;1863;-56
2022/10/11 03:26:30;;;;;;;;;;;10.00;99.90;;;;;;5108415;27;1265;-55
2022/10/11 03:29:08;;;;;;;;;;;10.00;99.90;;;;;;5108027;27;1236;-55
2022/10/11 03:31:46;;;;;;;;;;;10.00;99.90;;;;;;5099601;27;1386;-55
2022/10/11 03:34:25;;;;;;;;;;;10.00;99.90;;;;;;5108342;27;1630;-55
2022/10/11 03:37:03;;;;;;;;;;;10.00;99.90;;;;;;5086244;27;1878;-55
2022/10/11 03:39:41;;;;;;;;;;;10.00;99.90;;;;;;5092671;27;1532;-55
2022/10/11 03:42:21;;;;;;;;;;;10.00;99.90;;;;;;5094563;27;2147;-57
2022/10/11 03:45:03;;;;;;;;;;;10.00;99.90;;;;;;5099587;27;1378;-56
2022/10/11 03:47:42;;;;;;;;;;;10.00;99.90;;;;;;5083983;27;1757;-57
2022/10/11 03:50:21;;;;;;;;;;;10.00;99.90;;;;;;5066410;27;1641;-55
2022/10/11 03:53:00;;;;;;;;;;;10.00;99.90;;;;;;5107018;27;1646;-56
2022/10/11 03:55:39;;;;;;;;;;;9.90;99.90;;;;;;5107297;27;1300;-56
2022/10/11 03:58:18;;;;;;;;;;;9.90;99.90;;;;;;5103143;27;1937;-56
2022/10/11 04:00:56;;;;;;;;;;;9.90;99.90;;;;;;5084365;27;1318;-56
2022/10/11 04:03:35;;;;;;;;;;;9.80;99.90;;;;;;5107363;27;1295;-57
2022/10/11 04:06:13;;;;;;;;;;;9.80;99.90;;;;;;5107121;27;1591;-57
2022/10/11 04:08:51;;;;;;;;;;;9.80;99.90;;;;;;5105507;27;1810;-54
2022/10/11 04:11:29;;;;;;;;;;;9.80;99.90;;;;;;5105105;27;1664;-56
2022/10/11 04:14:07;;;;;;;;;;;9.80;99.90;;;;;;5106863;27;1685;-57
2022/10/11 04:16:46;;;;;;;;;;;9.90;99.90;;;;;;5105831;27;1572;-56
2022/10/11 04:19:24;;;;;;;;;;;9.90;99.90;;;;;;5105020;27;2006;-57
2022/10/11 04:22:03;;;;;;;;;;;10.00;99.90;;;;;;5069465;27;1600;-56
2022/10/11 04:24:42;;;;;;;;;;;10.00;99.90;;;;;;5107179;27;1397;-57
2022/10/11 04:27:20;;;;;;;;;;;10.00;99.90;;;;;;5108672;27;1366;-57
2022/10/11 04:29:59;;;;;;;;;;;10.00;99.90;;;;;;5108475;27;1314;-57
2022/10/11 04:32:37;;;;;;;;;;;10.10;99.90;;;;;;5092751;27;1484;-56
2022/10/11 04:35:15;;;;;;;;;;;10.10;99.90;;;;;;5087701;27;1512;-57
2022/10/11 04:37:53;;;;;;;;;;;10.10;99.90;;;;;;5108691;27;1233;-56
2022/10/11 04:40:32;;;;;;;;;;;10.10;99.90;;;;;;5087212;27;1228;-56
2022/10/11 04:43:10;;;;;;;;;;;10.10;99.90;;;;;;5085817;27;1670;-57
2022/10/11 04:45:48;;;;;;;;;;;10.10;99.90;;;;;;5107936;27;1687;-57
2022/10/11 04:48:26;;;;;;;;;;;10.10;99.90;;;;;;5104732;27;1938;-57
2022/10/11 04:51:04;;;;;;;;;;;10.10;99.90;;;;;;5084337;27;1658;-56
2022/10/11 04:53:43;;;;;;;;;;;10.10;99.90;;;;;;5107740;27;1297;-56
2022/10/11 04:56:21;;;;;;;;;;;10.10;99.90;;;;;;5108145;27;1726;-56
2022/10/11 04:58:59;;;;;;;;;;;10.10;99.90;;;;;;5108399;27;1440;-56
2022/10/11 05:01:37;;;;;;;;;;;10.10;99.90;;;;;;5096770;27;1733;-56
2022/10/11 05:04:15;;;;;;;;;;;10.10;99.90;;;;;;5086431;27;1588;-55
2022/10/11 05:06:54;;;;;;;;;;;10.10;99.90;;;;;;5108040;27;1706;-55
2022/10/11 05:09:34;;;;;;;;;;;10.20;99.90;;;;;;5087366;27;1240;-55
2022/10/11 05:12:13;;;;;;;;;;;10.20;99.90;;;;;;5108198;27;1628;-56
2022/10/11 05:14:52;;;;;;;;;;;10.20;99.90;;;;;;5088193;27;1320;-55
2022/10/11 05:17:30;;;;;;;;;;;10.20;99.90;;;;;;5105540;27;1465;-55
2022/10/11 05:20:09;;;;;;;;;;;10.20;99.90;;;;;;5105899;27;1857;-56
2022/10/11 05:22:48;;;;;;;;;;;10.20;99.90;;;;;;5101269;27;1923;-56
2022/10/11 05:25:26;;;;;;;;;;;10.20;99.90;;;;;;5106489;27;1312;-55
2022/10/11 05:28:04;;;;;;;;;;;10.20;99.90;;;;;;5102629;27;1587;-55
2022/10/11 05:30:44;;;;;;;;;;;10.20;99.90;;;;;;5106700;27;1278;-55
2022/10/11 05:33:23;;;;;;;;;;;10.30;99.90;;;;;;5103557;27;1288;-54
2022/10/11 05:36:02;;;;;;;;;;;10.30;99.90;;;;;;5106930;27;1269;-56
2022/10/11 05:38:41;;;;;;;;;;;10.30;99.90;;;;;;5108190;27;1300;-55
2022/10/11 05:41:20;;;;;;;;;;;10.30;99.90;;;;;;5081598;27;1294;-56
2022/10/11 05:43:58;;;;;;;;;;;10.30;99.90;;;;;;5107037;27;1231;-55
2022/10/11 05:46:37;;;;;;;;;;;10.30;99.90;;;;;;5106820;27;1390;-55
2022/10/11 05:49:15;;;;;;;;;;;10.30;99.90;;;;;;5087261;27;1684;-56
2022/10/11 05:51:53;;;;;;;;;;;10.40;99.90;;;;;;5086438;27;1236;-56
2022/10/11 05:54:31;;;;;;;;;;;10.40;99.90;;;;;;5106961;27;1401;-56
2022/10/11 05:57:10;;;;;;;;;;;10.50;99.90;;;;;;5104691;27;1617;-56
2022/10/11 05:59:48;;;;;;;;;;;10.50;99.90;;;;;;5106827;27;1325;-57
2022/10/11 06:02:26;;;;;;;;;;;10.60;99.90;;;;;;5054001;27;2171;-56
2022/10/11 06:05:05;;;;;;;;;;;10.60;99.90;;;;;;5107611;27;1586;-56
2022/10/11 06:07:44;;;;;;;;;;;10.60;99.90;;;;;;5107234;27;1345;-56
2022/10/11 06:10:22;;;;;;;;;;;10.60;99.90;;;;;;5107896;27;1431;-56
2022/10/11 06:13:04;;;;;;;;;;;10.60;99.90;;;;;;5086815;27;1646;-57
2022/10/11 06:16:03;;;;;;;;;;;10.70;99.90;;;;;;5144072;27;1479;-56
2022/10/11 06:19:01;;;;;;;;;;;10.70;99.90;;;;;;5110853;27;1419;-56
2022/10/11 06:21:57;;;;;;;;;;;10.80;99.90;;;;;;5126291;27;1360;-56
2022/10/11 06:24:52;;;;;;;;;;;10.80;99.90;;;;;;5098212;27;1596;-56
2022/10/11 06:27:49;;;;;;;;;;;10.80;99.90;;;;;;5133843;27;1588;-56
2022/10/11 06:30:44;;;;;;;;;;;10.80;99.90;;;;;;5087064;27;1641;-56
2022/10/11 06:33:41;;;;;;;;;;;10.90;99.90;;;;;;5140976;27;1654;-56
2022/10/11 06:36:36;;;;;;;;;;;10.90;99.90;;;;;;5118321;27;1381;-56
2022/10/11 06:39:33;;;;;;;;;;;10.90;99.90;;;;;;5132863;27;1429;-56
2022/10/11 06:42:30;;;;;;;;;;;11.00;99.90;;;;;;5125665;27;1832;-55
2022/10/11 06:45:40;;;;;;;;;;;11.00;99.90;;;;;;5127235;27;1776;-55
2022/10/11 06:48:32;;;;;;;;;;;11.00;99.90;;;;;;5109055;27;1600;-55
2022/10/11 06:51:27;;;;;;;;;;;11.00;99.90;;;;;;5108902;27;1351;-55
2022/10/11 06:54:25;;;;;;;;;;;11.10;99.90;;;;;;5103712;27;1850;-55
2022/10/11 06:57:18;;;;;;;;;;;11.10;99.90;;;;;;5106001;27;1678;-55
2022/10/11 07:00:15;;;;;;;;;;;11.10;99.90;;;;;;5137153;27;3100;-55
2022/10/11 07:03:11;;;;;;;;;;;11.20;99.90;;;;;;5087093;27;1856;-55
2022/10/11 07:06:05;;;;;;;;;;;11.20;99.90;;;;;;5090368;27;1964;-56
2022/10/11 07:09:02;;;;;;;;;;;11.30;99.90;;;;;;5149095;27;1673;-55
2022/10/11 07:11:54;;;;;;;;;;;11.40;99.90;;;;;;5099054;27;1331;-55
2022/10/11 07:14:47;;;;;;;;;;;11.50;99.90;;;;;;5108273;27;1431;-55
2022/10/11 07:17:39;;;;;;;;;;;11.60;99.90;;;;;;5105990;27;1780;-55
2022/10/11 07:20:41;;;;;;;;;;;11.60;99.90;;;;;;5112022;27;1281;-55
2022/10/11 07:23:37;;;;;;;;;;;11.60;99.90;;;;;;5104773;27;1668;-55
2022/10/11 07:26:30;;;;;;;;;;;11.70;99.90;;;;;;5119331;27;1485;-55
2022/10/11 07:29:41;;;;;;;;;;;11.90;99.90;;;;;;5127948;27;1916;-55
2022/10/11 07:32:36;;;;;;;;;;;12.00;99.90;;;;;;5111191;27;1343;-55
2022/10/11 07:35:42;;;;;;;;;;;12.10;99.90;;;;;;5128742;27;1295;-55
2022/10/11 07:38:44;;;;;;;;;;;12.20;99.90;;;;;;5105153;27;1640;-55
2022/10/11 07:41:37;;;;;;;;;;;12.10;99.90;;;;;;5080101;27;1619;-55
2022/10/11 07:44:35;;;;;;;;;;;12.10;99.90;;;;;;5134355;27;1605;-55
2022/10/11 07:47:37;;;;;;;;;;;12.20;99.90;;;;;;5102481;27;2361;-55
2022/10/11 07:50:36;;;;;;;;;;;12.20;99.90;;;;;;5105702;27;1236;-56
2022/10/11 07:53:48;;;;;;;;;;;12.20;99.90;;;;;;5124533;27;1541;-56
2022/10/11 07:56:44;;;;;;;;;;;12.30;99.90;;;;;;5108764;27;1370;-56
2022/10/11 07:59:37;;;;;;;;;;;12.30;99.90;;;;;;5107232;27;2714;-56
2022/10/11 08:02:30;;;;;;;;;;;12.50;99.90;;;;;;5093799;27;1862;-56
2022/10/11 08:05:32;;;;;;;;;;;12.80;99.90;;;;;;5115522;27;1406;-55
2022/10/11 08:08:31;;;;;;;;;;;13.00;99.90;;;;;;5110089;27;1623;-56
2022/10/11 08:11:24;;;;;;;;;;;13.00;99.90;;;;;;5106214;27;2445;-56
2022/10/11 08:14:24;;;;;;;;;;;13.10;99.90;;;;;;5095908;27;1794;-56
2022/10/11 08:17:20;;;;;;;;;;;12.90;99.90;;;;;;5129269;27;1735;-56
2022/10/11 08:20:29;;;;;;;;;;;12.80;99.90;;;;;;5139539;27;1678;-55
2022/10/11 08:23:26;;;;;;;;;;;12.80;99.90;;;;;;5123694;27;1442;-56
2022/10/11 08:26:21;;;;;;;;;;;12.70;99.90;;;;;;5121524;27;1688;-56
2022/10/11 08:29:14;;;;;;;;;;;12.80;99.90;;;;;;5107786;27;1720;-56
2022/10/11 08:32:11;;;;;;;;;;;13.00;99.90;;;;;;5084909;27;2059;-56
2022/10/11 08:35:18;;;;;;;;;;;13.20;99.90;;;;;;5128385;27;1637;-56
2022/10/11 08:38:10;;;;;;;;;;;13.50;99.90;;;;;;5108293;27;2164;-54
2022/10/11 08:41:23;;;;;;;;;;;13.60;99.90;;;;;;5100133;27;1355;-56
2022/10/11 08:44:26;;;;;;;;;;;13.80;99.90;;;;;;5116153;27;1227;-57
2022/10/11 08:47:22;;;;;;;;;;;14.00;99.90;;;;;;5101956;27;1562;-56
2022/10/11 08:50:19;;;;;;;;;;;14.30;99.90;;;;;;5108723;27;1858;-56
2022/10/11 08:53:14;;;;;;;;;;;14.50;99.90;;;;;;5088374;27;1501;-56
2022/10/11 08:56:11;;;;;;;;;;;14.50;99.90;;;;;;5108723;27;1400;-56
2022/10/11 08:59:05;;;;;;;;;;;14.70;99.90;;;;;;5105396;27;1732;-56
2022/10/11 09:02:01;;;;;;;;;;;14.80;99.90;;;;;;5084306;27;1499;-56
2022/10/11 09:04:40;;;;;;;;;;;15.20;99.90;;;;;;5107482;27;1285;-56
2022/10/11 09:07:23;;;;;;;;;;;15.80;99.90;;;;;;5101733;27;1775;-56
2022/10/11 09:10:08;;;;;;;;;;;16.30;99.90;;;;;;5087088;27;1308;-56
2022/10/11 09:12:51;;;;;;;;;;;16.70;99.90;;;;;;5106660;27;1693;-56
2022/10/11 09:15:38;;;;;;;;;;;17.00;99.90;;;;;;5087652;27;1285;-54
2022/10/11 09:18:41;;;;;;;;;;;17.00;99.90;;;;;;5085901;27;1642;-56
2022/10/11 09:21:28;;;;;;;;;;;17.30;99.90;;;;;;5100539;27;1661;-56
2022/10/11 09:24:13;;;;;;;;;;;17.80;99.90;;;;;;5102651;27;1390;-57
2022/10/11 09:26:54;;;;;;;;;;;18.00;99.90;;;;;;5107494;27;1601;-56
2022/10/11 09:29:45;;;;;;;;;;;18.10;99.90;;;;;;5107815;27;1543;-56
2022/10/11 09:32:28;;;;;;;;;;;18.00;99.90;;;;;;5073850;27;1322;-56
2022/10/11 09:35:11;;;;;;;;;;;18.00;99.90;;;;;;5082934;27;1552;-56
2022/10/11 09:37:54;;;;;;;;;;;18.00;99.90;;;;;;5107278;27;1613;-54
2022/10/11 09:40:37;;;;;;;;;;;18.10;99.90;;;;;;5107917;27;1510;-56
2022/10/11 09:43:16;;;;;;;;;;;18.40;99.90;;;;;;5108558;27;1289;-56
2022/10/11 09:45:54;;;;;;;;;;;18.60;99.90;;;;;;5107825;27;1212;-55
2022/10/11 09:48:38;;;;;;;;;;;18.60;99.90;;;;;;5106369;27;1689;-55
2022/10/11 09:51:20;;;;;;;;;;;18.50;99.90;;;;;;5087356;27;1296;-56
2022/10/11 09:53:59;;;;;;;;;;;18.70;99.90;;;;;;5107782;27;1301;-55
2022/10/11 09:56:42;;;;;;;;;;;19.20;99.90;;;;;;5107164;27;1264;-56
2022/10/11 09:59:28;;;;;;;;;;;19.60;99.90;;;;;;5094984;27;1234;-56
2022/10/11 10:02:16;;;;;;;;;;;19.60;99.90;;;;;;5094634;27;1666;-55
2022/10/11 10:04:57;;;;;;;;;;;19.50;99.90;;;;;;5107483;27;1178;-55
2022/10/11 10:07:37;;;;;;;;;;;19.40;99.90;;;;;;5085545;27;1392;-55
2022/10/11 10:10:27;;;;;;;;;;;19.30;99.90;;;;;;5107761;27;1271;-55
2022/10/11 10:13:18;;;;;;;;;;;19.20;99.90;;;;;;5068073;27;1390;-56
2022/10/11 10:15:58;;;;;;;;;;;19.20;99.90;;;;;;5107881;27;1390;-55
2022/10/11 10:18:38;;;;;;;;;;;19.20;99.90;;;;;;5105124;27;1660;-55
2022/10/11 10:21:23;;;;;;;;;;;19.00;99.90;;;;;;5105350;27;1300;-55
2022/10/11 10:24:16;;;;;;;;;;;18.80;99.90;;;;;;5106058;27;1237;-55
2022/10/11 10:27:16;;;;;;;;;;;18.90;99.90;;;;;;5083354;27;1500;-55
2022/10/11 10:30:12;;;;;;;;;;;19.00;99.90;;;;;;5087033;27;1301;-55
2022/10/11 10:32:54;;;;;;;;;;;18.80;99.90;;;;;;5127996;27;1751;-53
2022/10/11 10:35:33;;;;;;;;;;;18.90;99.90;;;;;;5087447;27;1564;-56
2022/10/11 10:38:16;;;;;;;;;;;18.80;99.90;;;;;;5104611;27;1683;-56
2022/10/11 10:40:56;;;;;;;;;;;18.80;99.90;;;;;;5105418;27;1361;-55
2022/10/11 10:43:35;;;;;;;;;;;18.80;99.90;;;;;;5104831;27;1305;-55
2022/10/11 10:46:22;;;;;;;;;;;18.80;99.90;;;;;;5107328;27;1789;-55
2022/10/11 10:49:04;;;;;;;;;;;18.70;99.90;;;;;;5087121;27;1278;-55
2022/10/11 10:51:48;;;;;;;;;;;18.70;99.90;;;;;;5079949;27;1840;-55
2022/10/11 10:54:34;;;;;;;;;;;18.80;99.90;;;;;;5108490;27;1293;-55
2022/10/11 10:57:16;;;;;;;;;;;18.90;99.90;;;;;;5087803;27;1470;-56
2022/10/11 11:00:10;;;;;;;;;;;19.00;99.90;;;;;;5067623;27;1208;-55
2022/10/11 11:02:52;;;;;;;;;;;19.00;99.90;;;;;;5108516;27;1452;-55
2022/10/11 11:05:40;;;;;;;;;;;18.70;99.90;;;;;;5108981;27;1672;-55
2022/10/11 11:08:24;;;;;;;;;;;18.60;99.90;;;;;;5104453;27;1391;-55
2022/10/11 11:11:07;;;;;;;;;;;18.80;99.90;;;;;;5086223;27;1547;-55
2022/10/11 11:13:49;;;;;;;;;;;19.10;99.90;;;;;;5105731;27;1241;-56
2022/10/11 11:16:32;;;;;;;;;;;19.40;99.90;;;;;;5107565;27;1394;-55
2022/10/11 11:19:18;;;;;;;;;;;19.60;99.90;;;;;;5083224;27;1698;-55
2022/10/11 11:22:00;;;;;;;;;;;19.90;99.90;;;;;;5103030;27;1578;-55
2022/10/11 11:24:46;;;;;;;;;;;19.80;99.90;;;;;;5086894;27;1353;-55
2022/10/11 11:27:28;;;;;;;;;;;19.60;99.90;;;;;;5108025;27;1253;-55
2022/10/11 11:30:09;;;;;;;;;;;19.20;99.90;;;;;;5108259;27;1581;-55
2022/10/11 11:32:53;;;;;;;;;;;18.60;99.90;;;;;;5067441;27;1719;-55
2022/10/11 11:35:35;;;;;;;;;;;18.40;99.90;;;;;;5107513;27;1316;-55
2022/10/11 11:38:18;;;;;;;;;;;18.50;99.90;;;;;;5088421;27;1280;-56
2022/10/11 11:41:00;;;;;;;;;;;18.80;99.90;;;;;;5101821;27;1729;-55
2022/10/11 11:43:45;;;;;;;;;;;19.20;99.90;;;;;;5087102;27;1647;-56
2022/10/11 11:46:25;;;;;;;;;;;19.30;99.90;;;;;;5059672;27;1188;-56
2022/10/11 11:49:11;;;;;;;;;;;19.40;99.90;;;;;;5104641;27;1545;-55
2022/10/11 11:51:50;;;;;;;;;;;19.30;99.90;;;;;;5098405;27;1415;-56
2022/10/11 11:54:34;;;;;;;;;;;19.20;99.90;;;;;;5087329;27;1359;-55
2022/10/11 11:57:19;;;;;;;;;;;18.90;99.90;;;;;;5108648;27;1632;-56
2022/10/11 12:00:01;;;;;;;;;;;18.60;99.90;;;;;;5108656;27;1296;-57
2022/10/11 12:02:51;;;;;;;;;;;18.40;99.90;;;;;;5091044;27;1221;-58
2022/10/11 12:05:31;;;;;;;;;;;18.20;99.90;;;;;;5108588;27;1537;-57
2022/10/11 12:08:24;;;;;;;;;;;18.20;99.90;;;;;;5087478;27;1919;-56
2022/10/11 12:11:04;;;;;;;;;;;18.10;99.90;;;;;;5087879;27;1668;-57
2022/10/11 12:13:43;;;;;;;;;;;18.30;99.90;;;;;;5109016;27;1293;-56
2022/10/11 12:16:22;;;;;;;;;;;18.40;99.90;;;;;;5108384;27;1312;-56
2022/10/11 12:19:02;;;;;;;;;;;18.40;99.90;;;;;;5103621;27;1655;-56
2022/10/11 12:21:43;;;;;;;;;;;18.50;99.90;;;;;;5107896;27;1390;-56
2022/10/11 12:24:24;;;;;;;;;;;18.70;99.90;;;;;;5108918;27;1491;-57
2022/10/11 12:27:22;;;;;;;;;;;19.00;99.90;;;;;;5109629;27;1810;-56
2022/10/11 12:30:01;;;;;;;;;;;19.10;99.90;;;;;;5089163;27;1597;-56
2022/10/11 12:32:50;;;;;;;;;;;19.30;99.90;;;;;;5093441;27;1402;-56
2022/10/11 12:35:52;;;;;;;;;;;19.30;99.90;;;;;;5109257;27;1332;-56
2022/10/11 12:38:32;;;;;;;;;;;19.10;99.90;;;;;;5107796;27;1638;-56
2022/10/11 12:41:28;;;;;;;;;;;18.70;99.90;;;;;;5104331;27;1890;-54
2022/10/11 12:44:19;;;;;;;;;;;18.40;99.90;;;;;;5087801;27;1305;-55
2022/10/11 12:49:59;;;;;;;;;;;18.40;99.90;;;;;;5107279;27;1344;-55
2022/10/11 12:52:42;;;;;;;;;;;18.60;99.90;;;;;;5061696;27;1390;-56
2022/10/11 12:55:30;;;;;;;;;;;18.90;99.90;;;;;;5108541;27;1272;-56
2022/10/11 12:58:25;;;;;;;;;;;19.40;99.90;;;;;;5105187;27;1594;-56
2022/10/11 13:01:11;;;;;;;;;;;19.60;99.90;;;;;;5106785;27;1765;-56
2022/10/11 13:03:59;;;;;;;;;;;19.50;99.90;;;;;;5120266;27;1279;-56
2022/10/11 13:06:45;;;;;;;;;;;19.20;99.90;;;;;;5108426;27;1419;-56
2022/10/11 13:09:28;;;;;;;;;;;18.70;99.90;;;;;;5084497;27;1525;-56
2022/10/11 13:12:09;;;;;;;;;;;18.40;99.90;;;;;;5103526;27;1542;-56
2022/10/11 13:14:51;;;;;;;;;;;18.20;99.90;;;;;;5083582;27;1322;-56
2022/10/11 13:17:31;;;;;;;;;;;18.10;99.90;;;;;;5102250;27;1573;-56
2022/10/11 13:20:16;;;;;;;;;;;18.30;99.90;;;;;;5085432;27;1830;-56
2022/10/11 13:22:56;;;;;;;;;;;18.50;99.90;;;;;;5086753;27;1390;-56
2022/10/11 13:25:37;;;;;;;;;;;18.60;99.90;;;;;;5088063;27;1545;-56
2022/10/11 13:28:17;;;;;;;;;;;18.50;99.90;;;;;;5077084;27;1780;-56
2022/10/11 13:30:57;;;;;;;;;;;18.40;99.90;;;;;;5106026;27;1674;-55
2022/10/11 13:33:38;;;;;;;;;;;18.30;99.90;;;;;;5088398;27;1630;-56
2022/10/11 13:36:18;;;;;;;;;;;18.00;99.90;;;;;;5067374;27;1176;-56
2022/10/11 13:38:58;;;;;;;;;;;17.90;99.90;;;;;;5066226;27;1718;-56
2022/10/11 13:41:37;;;;;;;;;;;18.00;99.90;;;;;;5106705;27;1620;-56
2022/10/11 13:44:15;;;;;;;;;;;18.30;99.90;;;;;;5109194;27;1304;-56
2022/10/11 13:46:53;;;;;;;;;;;18.70;99.90;;;;;;5109094;27;1217;-56
2022/10/11 13:49:38;;;;;;;;;;;19.10;99.90;;;;;;5061619;27;1558;-56
2022/10/11 13:52:22;;;;;;;;;;;19.00;99.90;;;;;;5095810;27;1389;-54
2022/10/11 13:55:14;;;;;;;;;;;18.90;99.90;;;;;;5108954;27;1308;-56
2022/10/11 13:57:54;;;;;;;;;;;18.70;99.90;;;;;;5085047;27;1718;-56
2022/10/11 14:00:34;;;;;;;;;;;18.50;99.90;;;;;;5108659;27;1297;-57
2022/10/11 14:03:18;;;;;;;;;;;18.20;99.90;;;;;;5068587;27;1459;-56
2022/10/11 14:05:57;;;;;;;;;;;17.90;99.90;;;;;;5089088;27;1197;-56
2022/10/11 14:08:37;;;;;;;;;;;17.60;99.90;;;;;;5089115;27;1309;-56
2022/10/11 14:11:31;;;;;;;;;;;17.40;99.90;;;;;;5109089;27;2034;-56
2022/10/11 14:14:27;;;;;;;;;;;17.10;99.90;;;;;;5104732;27;1558;-56
2022/10/11 14:17:11;;;;;;;;;;;17.00;99.90;;;;;;5108828;27;1389;-56
2022/10/11 14:20:03;;;;;;;;;;;16.80;99.90;;;;;;5088844;27;1884;-56
2022/10/11 14:22:41;;;;;;;;;;;16.60;99.90;;;;;;5093179;27;1582;-56
2022/10/11 14:25:20;;;;;;;;;;;16.40;99.90;;;;;;5109413;27;1608;-56
2022/10/11 14:27:58;;;;;;;;;;;16.30;99.90;;;;;;5109880;27;1249;-56
2022/10/11 14:30:40;;;;;;;;;;;16.20;99.90;;;;;;5108141;27;2201;-56
2022/10/11 14:33:25;;;;;;;;;;;16.10;99.90;;;;;;5109118;27;1466;-56
2022/10/11 14:36:04;;;;;;;;;;;16.10;99.90;;;;;;5108407;27;1386;-56
2022/10/11 14:38:42;;;;;;;;;;;16.00;99.90;;;;;;5088211;27;1226;-56
2022/10/11 14:41:20;;;;;;;;;;;16.00;99.90;;;;;;5081641;27;1668;-56
2022/10/11 14:43:58;;;;;;;;;;;16.00;99.90;;;;;;5109476;27;1623;-56
2022/10/11 14:46:37;;;;;;;;;;;15.90;99.90;;;;;;5109213;27;1416;-55
2022/10/11 14:49:17;;;;;;;;;;;15.80;99.90;;;;;;5088785;27;1826;-55
2022/10/11 14:51:57;;;;;;;;;;;15.80;99.90;;;;;;5080423;27;1505;-55
2022/10/11 14:54:36;;;;;;;;;;;15.80;99.90;;;;;;5087221;27;1289;-56
2022/10/11 14:57:16;;;;;;;;;;;15.80;99.90;;;;;;5082208;27;2038;-56
2022/10/11 14:59:56;;;;;;;;;;;15.80;99.90;;;;;;5087708;27;1685;-57
2022/10/11 15:02:34;;;;;;;;;;;15.70;99.90;;;;;;5072818;27;1848;-56
2022/10/11 15:05:14;;;;;;;;;;;15.70;99.90;;;;;;5088668;27;1360;-56
2022/10/11 15:07:52;;;;;;;;;;;15.60;99.90;;;;;;5108779;27;1569;-56
2022/10/11 15:10:31;;;;;;;;;;;15.50;99.90;;;;;;5101608;27;1617;-55
2022/10/11 15:13:10;;;;;;;;;;;15.40;99.90;;;;;;5082709;27;1825;-54
2022/10/11 15:15:48;;;;;;;;;;;15.30;99.90;;;;;;5108344;27;1656;-56
2022/10/11 15:18:26;;;;;;;;;;;15.20;99.90;;;;;;5109312;27;1300;-56
2022/10/11 15:21:05;;;;;;;;;;;15.10;99.90;;;;;;5086231;27;1304;-54
2022/10/11 15:23:43;;;;;;;;;;;15.00;99.90;;;;;;5108347;27;1171;-56
2022/10/11 15:26:22;;;;;;;;;;;15.00;99.90;;;;;;5088814;27;1382;-56
2022/10/11 15:29:01;;;;;;;;;;;14.80;99.90;;;;;;5094726;27;1529;-56
2022/10/11 15:31:41;;;;;;;;;;;14.80;99.90;;;;;;5078233;27;1830;-54
2022/10/11 15:34:19;;;;;;;;;;;14.60;99.90;;;;;;5109848;27;1460;-56
2022/10/11 15:36:59;;;;;;;;;;;14.50;99.90;;;;;;5109651;27;1301;-56
2022/10/11 15:39:37;;;;;;;;;;;14.30;99.90;;;;;;5107215;27;1569;-56
2022/10/11 15:42:19;;;;;;;;;;;14.00;99.90;;;;;;5084832;27;1584;-56
2022/10/11 15:44:57;;;;;;;;;;;13.80;99.90;;;;;;5136343;22;1922;-52
2022/10/11 15:47:37;;;;;;;;;;;13.60;99.90;;;;;;5105653;27;1401;-52
2022/10/11 15:50:22;;;;;;;;;;;13.40;99.90;;;;;;5106818;27;1271;-51
2022/10/11 15:53:02;;;;;;;;;;;13.30;99.90;;;;;;5106916;27;1391;-53
2022/10/11 15:55:42;;;;;;;;;;;13.10;99.90;;;;;;5104649;27;1634;-52
2022/10/11 15:58:21;;;;;;;;;;;13.00;99.90;;;;;;5107816;27;1591;-52
2022/10/11 16:01:04;;;;;;;;;;;12.80;99.90;;;;;;5106007;27;1337;-51
2022/10/11 16:03:42;;;;;;;;;;;12.60;99.90;;;;;;5124907;27;1390;-52
2022/10/11 16:06:23;;;;;;;;;;;12.50;99.90;;;;;;5106143;27;1389;-52
2022/10/11 16:09:02;;;;;;;;;;;12.30;99.90;;;;;;5106589;27;1293;-51
2022/10/11 16:11:41;;;;;;;;;;;12.00;99.90;;;;;;5107867;27;1334;-51
2022/10/11 16:14:20;;;;;;;;;;;11.80;99.90;;;;;;5098055;27;1293;-52